SUCCESS DAM (SCC)

Elevation: 692' · TULE R basin · Operator: US Army Corps of Engineers

Provisional data, subject to change.
Query executed Thursday at 7:16:17   clock

Select a sensor type for a plot of data.
Note: Reservoir Flows are daily averages.

Earlier

Date RES ELE    STORAGE    RES CHG    TOC STO    ABV TOC    OUTFLOW    INFLOW    FNF    PPT INC    PPTINC4    TEMP MN    TEMP MX    WINDLEN    EVP PAN   
 FEET   AF   AF   AF   AF   CFS   CFS   CFS   INCHES   INCHES   DEG F   DEG F   MILES   INCHES  
04/06/2016 628.10 38422 314 45244 -6822 8 173 173 0.00 0.00 13 31 61 0.21
04/07/2016 628.35 38737 315 46855 -8118 9 174 174 0.00 0.00 16 30 59 0.19
04/08/2016 628.64 39106 369 48467 -9361 9 199 199 0.20 0.00 15 22 53 0.10
04/09/2016 629.15 39761 655 50078 -10317 8 344 344 0.46 0.61 13 22 57 0.15
04/10/2016 629.65 40412 651 51689 -11277 6 339 339 0.28 0.05 13 23 62 0.14
04/11/2016 630.03 40913 501 53300 -12387 5 263 263 0.03 0.29 13 23 45 0.13
04/12/2016 630.36 41351 438 54911 -13560 5 232 232 0.00 0.00 13 24 51 0.16
04/13/2016 630.66 41753 402 56522 -14769 5 211 211 0.00 0.00 13 20 56 0.10
04/14/2016 630.95 42145 392 58133 -15988 6 211 211 0.00 0.00 9 23 69 0.20
04/15/2016 631.22 42513 368 59744 -17231 6 198 198 0.01 0.00 7 21 67 0.18
04/16/2016 631.47 42855 342 61356 -18501 5 187 187 0.03 0.00 11 27 68 0.23
04/17/2016 631.71 43186 331 62488 -19302 5 182 182 0.04 0.00 13 32 68 0.26
04/18/2016 631.93 43492 306 62783 -19291 8 172 172 0.02 0.00 14 33 64 0.27
04/19/2016 632.16 43813 321 62578 -19281 10 182 182 0.00 0.00 14 33 64 0.26
04/20/2016 632.37 44108 295 62885 -19290 18 177 177 0.00 0.00 14 31 66 0.26
04/21/2016 632.55 44362 254 63187 -18825 35 172 172 0.00 0.00 9 30 62 0.24
04/22/2016 632.74 44632 270 63495 -18863 31 175 175 0.00 0.00 10 25 83 0.20
04/23/2016 632.98 44974 342 63844 -18870 24 205 205 0.00 0.00 8 23 69 0.21
04/24/2016 633.19 45276 302 64162 -18886 22 181 181 0.00 0.00 9 24 64 0.17
04/25/2016 633.38 45550 274 64464 -18914 22 167 167 0.00 0.00 10 19 68 0.17
04/26/2016 633.56 45811 261 63147 -18955 26 166 166 0.02 0.00 6 23 61 0.20
04/27/2016 633.71 46030 219 63440 -19018 30 149 149 0.00 0.00 8 24 69 0.22
04/28/2016 633.87 46264 234 63742 -17478 30 154 154 0.00 0.00 10 21 64 0.15
04/29/2016 634.01 46470 206 64034 -17564 31 145 145 0.05 0.00 13 27 63 0.24
04/30/2016 634.15 46677 207 64327 -17650 29 144 144 0.00 0.00 10 25 84 0.24
05/01/2016 634.28 46870 193 64594 -17724 27 136 136 0.03 0.00 14 31 86 0.28
05/02/2016 634.40 47048 178 64858 -17810 31 131 131 0.00 0.02 15 31 51 0.25
05/03/2016 634.50 47197 149 65112 -17915 34 120 120 0.00 0.01 14 32 56 0.25
05/04/2016 634.60 47347 150 65369 -18022 36 120 -- 0.00 0.00 16 29 63 0.20
05/05/2016 -- -- -- -- -- -- -- -- -- -- -- -- -- --

Later | Latest

Warning! This data is preliminary and subject to revision.

Show SCC Map | Plot SCC Data | 1 Month SCC Data | Real-Time SCC Data | SCC Info